sensor_id;sensor_type;location;lat;lon;timestamp;P1;durP1;ratioP1;P2;durP2;ratioP2
39846;SDS011;25517;52.422;10.782;2023-01-15T00:02:25;0.57;;;0.57;;
39846;SDS011;25517;52.422;10.782;2023-01-15T00:04:50;0.75;;;0.60;;
39846;SDS011;25517;52.422;10.782;2023-01-15T00:07:16;0.93;;;0.65;;
39846;SDS011;25517;52.422;10.782;2023-01-15T00:09:41;2.25;;;0.70;;
39846;SDS011;25517;52.422;10.782;2023-01-15T00:12:07;0.60;;;0.60;;
39846;SDS011;25517;52.422;10.782;2023-01-15T00:14:33;1.95;;;1.63;;
39846;SDS011;25517;52.422;10.782;2023-01-15T00:16:58;3.05;;;2.08;;
39846;SDS011;25517;52.422;10.782;2023-01-15T00:19:24;2.80;;;0.98;;
39846;SDS011;25517;52.422;10.782;2023-01-15T00:21:49;1.08;;;0.95;;
39846;SDS011;25517;52.422;10.782;2023-01-15T00:24:16;1.50;;;1.00;;
39846;SDS011;25517;52.422;10.782;2023-01-15T00:27:00;1.48;;;0.82;;
39846;SDS011;25517;52.422;10.782;2023-01-15T00:29:44;0.80;;;0.80;;
39846;SDS011;25517;52.422;10.782;2023-01-15T00:32:10;1.08;;;0.82;;
39846;SDS011;25517;52.422;10.782;2023-01-15T00:34:36;0.80;;;0.80;;
39846;SDS011;25517;52.422;10.782;2023-01-15T00:37:02;1.95;;;0.70;;
39846;SDS011;25517;52.422;10.782;2023-01-15T00:39:27;0.50;;;0.50;;
39846;SDS011;25517;52.422;10.782;2023-01-15T00:41:54;0.50;;;0.50;;
39846;SDS011;25517;52.422;10.782;2023-01-15T00:44:20;0.60;;;0.60;;
39846;SDS011;25517;52.422;10.782;2023-01-15T00:46:46;1.20;;;0.75;;
39846;SDS011;25517;52.422;10.782;2023-01-15T00:49:12;3.30;;;0.77;;
39846;SDS011;25517;52.422;10.782;2023-01-15T00:51:38;1.23;;;0.68;;
39846;SDS011;25517;52.422;10.782;2023-01-15T00:54:04;0.68;;;0.68;;
39846;SDS011;25517;52.422;10.782;2023-01-15T00:56:30;2.45;;;0.80;;
39846;SDS011;25517;52.422;10.782;2023-01-15T00:58:55;1.98;;;0.82;;
39846;SDS011;25517;52.422;10.782;2023-01-15T01:01:21;2.92;;;0.70;;
39846;SDS011;25517;52.422;10.782;2023-01-15T01:03:47;2.38;;;0.68;;
39846;SDS011;25517;52.422;10.782;2023-01-15T01:06:16;1.65;;;0.90;;
39846;SDS011;25517;52.422;10.782;2023-01-15T01:08:42;1.17;;;0.90;;
39846;SDS011;25517;52.422;10.782;2023-01-15T01:11:10;1.30;;;0.98;;
39846;SDS011;25517;52.422;10.782;2023-01-15T01:13:38;5.20;;;0.70;;
39846;SDS011;25517;52.422;10.782;2023-01-15T01:16:14;1.15;;;0.88;;
39846;SDS011;25517;52.422;10.782;2023-01-15T01:18:57;1.20;;;0.80;;
39846;SDS011;25517;52.422;10.782;2023-01-15T01:21:24;3.15;;;0.75;;
39846;SDS011;25517;52.422;10.782;2023-01-15T01:23:50;1.75;;;0.88;;
39846;SDS011;25517;52.422;10.782;2023-01-15T01:26:16;1.77;;;0.80;;
39846;SDS011;25517;52.422;10.782;2023-01-15T01:28:41;1.35;;;0.85;;
39846;SDS011;25517;52.422;10.782;2023-01-15T01:31:07;1.42;;;0.70;;
39846;SDS011;25517;52.422;10.782;2023-01-15T01:33:34;8.05;;;0.98;;
39846;SDS011;25517;52.422;10.782;2023-01-15T01:36:00;4.25;;;1.00;;
39846;SDS011;25517;52.422;10.782;2023-01-15T01:38:26;2.75;;;0.88;;
39846;SDS011;25517;52.422;10.782;2023-01-15T01:40:51;2.78;;;0.80;;
39846;SDS011;25517;52.422;10.782;2023-01-15T01:43:21;5.50;;;1.00;;
39846;SDS011;25517;52.422;10.782;2023-01-15T01:45:48;3.40;;;0.80;;
39846;SDS011;25517;52.422;10.782;2023-01-15T01:48:14;3.50;;;0.90;;
39846;SDS011;25517;52.422;10.782;2023-01-15T01:50:42;1.75;;;0.70;;
39846;SDS011;25517;52.422;10.782;2023-01-15T01:53:13;3.45;;;1.05;;
39846;SDS011;25517;52.422;10.782;2023-01-15T01:55:43;1.77;;;0.95;;
39846;SDS011;25517;52.422;10.782;2023-01-15T01:58:10;2.97;;;1.00;;
39846;SDS011;25517;52.422;10.782;2023-01-15T02:00:37;3.30;;;1.08;;
39846;SDS011;25517;52.422;10.782;2023-01-15T02:05:38;1.10;;;0.70;;
39846;SDS011;25517;52.422;10.782;2023-01-15T02:08:07;1.27;;;0.68;;
39846;SDS011;25517;52.422;10.782;2023-01-15T02:10:33;1.05;;;0.75;;
39846;SDS011;25517;52.422;10.782;2023-01-15T02:13:00;2.45;;;0.52;;
39846;SDS011;25517;52.422;10.782;2023-01-15T02:15:32;1.92;;;0.82;;
39846;SDS011;25517;52.422;10.782;2023-01-15T02:20:49;1.13;;;0.70;;
39846;SDS011;25517;52.422;10.782;2023-01-15T02:23:32;4.07;;;0.90;;
39846;SDS011;25517;52.422;10.782;2023-01-15T02:29:12;2.63;;;0.68;;
39846;SDS011;25517;52.422;10.782;2023-01-15T02:31:42;4.05;;;1.35;;
39846;SDS011;25517;52.422;10.782;2023-01-15T02:34:19;3.85;;;0.63;;
39846;SDS011;25517;52.422;10.782;2023-01-15T02:36:52;3.40;;;1.00;;
39846;SDS011;25517;52.422;10.782;2023-01-15T02:39:30;2.95;;;0.75;;
39846;SDS011;25517;52.422;10.782;2023-01-15T02:41:59;2.65;;;0.68;;
39846;SDS011;25517;52.422;10.782;2023-01-15T02:44:28;4.38;;;0.70;;
39846;SDS011;25517;52.422;10.782;2023-01-15T02:46:56;2.75;;;0.93;;
39846;SDS011;25517;52.422;10.782;2023-01-15T02:49:23;1.90;;;0.98;;
39846;SDS011;25517;52.422;10.782;2023-01-15T02:52:02;3.53;;;0.90;;
39846;SDS011;25517;52.422;10.782;2023-01-15T02:54:34;2.03;;;0.90;;
39846;SDS011;25517;52.422;10.782;2023-01-15T02:57:06;1.15;;;0.50;;
39846;SDS011;25517;52.422;10.782;2023-01-15T02:59:39;2.35;;;0.70;;
39846;SDS011;25517;52.422;10.782;2023-01-15T03:02:19;2.17;;;0.80;;
39846;SDS011;25517;52.422;10.782;2023-01-15T03:04:52;2.78;;;0.73;;
39846;SDS011;25517;52.422;10.782;2023-01-15T03:10:04;2.17;;;0.73;;
39846;SDS011;25517;52.422;10.782;2023-01-15T03:12:42;2.30;;;0.75;;
39846;SDS011;25517;52.422;10.782;2023-01-15T03:16:13;2.47;;;0.60;;
39846;SDS011;25517;52.422;10.782;2023-01-15T03:18:36;2.58;;;0.57;;
39846;SDS011;25517;52.422;10.782;2023-01-15T03:21:15;5.47;;;0.70;;
39846;SDS011;25517;52.422;10.782;2023-01-15T03:23:46;2.70;;;0.73;;
39846;SDS011;25517;52.422;10.782;2023-01-15T03:26:15;2.20;;;0.77;;
39846;SDS011;25517;52.422;10.782;2023-01-15T03:28:41;2.25;;;0.75;;
39846;SDS011;25517;52.422;10.782;2023-01-15T03:31:08;2.80;;;0.68;;
39846;SDS011;25517;52.422;10.782;2023-01-15T03:33:34;1.20;;;0.60;;
39846;SDS011;25517;52.422;10.782;2023-01-15T03:36:00;0.98;;;0.55;;
39846;SDS011;25517;52.422;10.782;2023-01-15T03:38:31;1.10;;;0.50;;
39846;SDS011;25517;52.422;10.782;2023-01-15T03:41:19;0.45;;;0.45;;
39846;SDS011;25517;52.422;10.782;2023-01-15T03:47:05;2.97;;;0.60;;
39846;SDS011;25517;52.422;10.782;2023-01-15T03:55:29;1.58;;;0.68;;
39846;SDS011;25517;52.422;10.782;2023-01-15T03:58:13;1.65;;;0.75;;
39846;SDS011;25517;52.422;10.782;2023-01-15T04:00:52;0.55;;;0.50;;
39846;SDS011;25517;52.422;10.782;2023-01-15T04:03:23;2.10;;;0.60;;
39846;SDS011;25517;52.422;10.782;2023-01-15T04:05:51;0.60;;;0.60;;
39846;SDS011;25517;52.422;10.782;2023-01-15T04:08:19;1.83;;;0.82;;
39846;SDS011;25517;52.422;10.782;2023-01-15T04:10:53;1.95;;;0.30;;
39846;SDS011;25517;52.422;10.782;2023-01-15T04:13:20;2.80;;;0.73;;
39846;SDS011;25517;52.422;10.782;2023-01-15T04:15:46;0.43;;;0.43;;
39846;SDS011;25517;52.422;10.782;2023-01-15T04:18:11;2.15;;;0.40;;
39846;SDS011;25517;52.422;10.782;2023-01-15T04:20:37;1.50;;;0.40;;
39846;SDS011;25517;52.422;10.782;2023-01-15T04:23:02;1.27;;;0.52;;
39846;SDS011;25517;52.422;10.782;2023-01-15T04:25:28;0.60;;;0.60;;
39846;SDS011;25517;52.422;10.782;2023-01-15T04:27:54;3.08;;;0.70;;
39846;SDS011;25517;52.422;10.782;2023-01-15T04:30:19;1.92;;;0.55;;
39846;SDS011;25517;52.422;10.782;2023-01-15T04:32:48;2.70;;;0.68;;
39846;SDS011;25517;52.422;10.782;2023-01-15T04:35:15;2.85;;;0.50;;
39846;SDS011;25517;52.422;10.782;2023-01-15T04:37:41;1.98;;;0.68;;
39846;SDS011;25517;52.422;10.782;2023-01-15T04:40:07;1.25;;;0.57;;
39846;SDS011;25517;52.422;10.782;2023-01-15T04:42:33;1.13;;;0.68;;
39846;SDS011;25517;52.422;10.782;2023-01-15T04:45:17;0.77;;;0.60;;
39846;SDS011;25517;52.422;10.782;2023-01-15T04:47:43;0.70;;;0.60;;
39846;SDS011;25517;52.422;10.782;2023-01-15T04:50:09;1.27;;;0.70;;
39846;SDS011;25517;52.422;10.782;2023-01-15T04:52:35;2.17;;;0.60;;
39846;SDS011;25517;52.422;10.782;2023-01-15T04:55:02;1.92;;;0.70;;
39846;SDS011;25517;52.422;10.782;2023-01-15T04:57:28;1.20;;;0.73;;
39846;SDS011;25517;52.422;10.782;2023-01-15T04:59:53;1.30;;;0.63;;
39846;SDS011;25517;52.422;10.782;2023-01-15T05:02:19;2.08;;;0.85;;
39846;SDS011;25517;52.422;10.782;2023-01-15T05:04:44;3.30;;;0.70;;
39846;SDS011;25517;52.422;10.782;2023-01-15T05:07:10;1.00;;;0.88;;
39846;SDS011;25517;52.422;10.782;2023-01-15T05:09:35;0.93;;;0.57;;
39846;SDS011;25517;52.422;10.782;2023-01-15T05:12:01;1.48;;;0.60;;
39846;SDS011;25517;52.422;10.782;2023-01-15T05:14:27;3.60;;;0.88;;
39846;SDS011;25517;52.422;10.782;2023-01-15T05:16:52;2.90;;;0.77;;
39846;SDS011;25517;52.422;10.782;2023-01-15T05:19:18;1.17;;;0.75;;
39846;SDS011;25517;52.422;10.782;2023-01-15T05:21:45;2.15;;;1.02;;
39846;SDS011;25517;52.422;10.782;2023-01-15T05:24:14;3.80;;;0.98;;
39846;SDS011;25517;52.422;10.782;2023-01-15T05:26:40;1.45;;;0.65;;
39846;SDS011;25517;52.422;10.782;2023-01-15T05:29:06;0.60;;;0.60;;
39846;SDS011;25517;52.422;10.782;2023-01-15T05:31:33;2.33;;;0.80;;
39846;SDS011;25517;52.422;10.782;2023-01-15T05:33:59;5.40;;;1.13;;
39846;SDS011;25517;52.422;10.782;2023-01-15T05:36:26;2.40;;;0.73;;
39846;SDS011;25517;52.422;10.782;2023-01-15T05:38:54;2.90;;;0.80;;
39846;SDS011;25517;52.422;10.782;2023-01-15T05:41:23;5.15;;;1.00;;
39846;SDS011;25517;52.422;10.782;2023-01-15T05:44:08;2.85;;;0.98;;
39846;SDS011;25517;52.422;10.782;2023-01-15T05:46:36;3.10;;;1.10;;
39846;SDS011;25517;52.422;10.782;2023-01-15T05:49:03;3.15;;;0.80;;
39846;SDS011;25517;52.422;10.782;2023-01-15T05:51:31;1.63;;;0.68;;
39846;SDS011;25517;52.422;10.782;2023-01-15T05:53:58;3.97;;;0.93;;
39846;SDS011;25517;52.422;10.782;2023-01-15T05:56:24;5.43;;;0.82;;
39846;SDS011;25517;52.422;10.782;2023-01-15T05:58:50;1.63;;;0.73;;
39846;SDS011;25517;52.422;10.782;2023-01-15T06:01:16;1.52;;;1.35;;
39846;SDS011;25517;52.422;10.782;2023-01-15T06:03:41;1.17;;;0.70;;
39846;SDS011;25517;52.422;10.782;2023-01-15T06:06:11;3.80;;;1.00;;
39846;SDS011;25517;52.422;10.782;2023-01-15T06:08:38;1.60;;;0.82;;
39846;SDS011;25517;52.422;10.782;2023-01-15T06:11:03;1.90;;;1.30;;
39846;SDS011;25517;52.422;10.782;2023-01-15T06:13:31;2.22;;;0.90;;
39846;SDS011;25517;52.422;10.782;2023-01-15T06:15:58;4.28;;;1.02;;
39846;SDS011;25517;52.422;10.782;2023-01-15T06:18:24;4.50;;;1.10;;
39846;SDS011;25517;52.422;10.782;2023-01-15T06:20:49;1.75;;;0.90;;
39846;SDS011;25517;52.422;10.782;2023-01-15T06:23:16;3.67;;;1.13;;
39846;SDS011;25517;52.422;10.782;2023-01-15T06:25:41;6.35;;;1.10;;
39846;SDS011;25517;52.422;10.782;2023-01-15T06:28:07;2.70;;;0.90;;
39846;SDS011;25517;52.422;10.782;2023-01-15T06:30:34;5.88;;;1.33;;
39846;SDS011;25517;52.422;10.782;2023-01-15T06:33:01;5.57;;;1.17;;
39846;SDS011;25517;52.422;10.782;2023-01-15T06:35:26;1.00;;;0.90;;
39846;SDS011;25517;52.422;10.782;2023-01-15T06:37:52;4.00;;;0.98;;
39846;SDS011;25517;52.422;10.782;2023-01-15T06:40:17;4.13;;;0.95;;
39846;SDS011;25517;52.422;10.782;2023-01-15T06:42:43;8.65;;;2.88;;
39846;SDS011;25517;52.422;10.782;2023-01-15T06:45:28;3.67;;;1.10;;
39846;SDS011;25517;52.422;10.782;2023-01-15T06:48:19;4.55;;;1.05;;
39846;SDS011;25517;52.422;10.782;2023-01-15T06:50:45;4.00;;;1.10;;
39846;SDS011;25517;52.422;10.782;2023-01-15T06:53:11;2.90;;;1.23;;
39846;SDS011;25517;52.422;10.782;2023-01-15T06:55:37;3.20;;;1.08;;
39846;SDS011;25517;52.422;10.782;2023-01-15T06:58:03;2.25;;;0.98;;
39846;SDS011;25517;52.422;10.782;2023-01-15T07:00:28;6.13;;;1.27;;
39846;SDS011;25517;52.422;10.782;2023-01-15T07:02:54;3.47;;;1.00;;
39846;SDS011;25517;52.422;10.782;2023-01-15T07:05:19;3.35;;;1.02;;
39846;SDS011;25517;52.422;10.782;2023-01-15T07:07:45;6.95;;;1.33;;
39846;SDS011;25517;52.422;10.782;2023-01-15T07:10:10;4.70;;;1.33;;
39846;SDS011;25517;52.422;10.782;2023-01-15T07:12:36;7.15;;;1.38;;
39846;SDS011;25517;52.422;10.782;2023-01-15T07:15:01;2.58;;;1.30;;
39846;SDS011;25517;52.422;10.782;2023-01-15T07:17:27;7.20;;;1.30;;
39846;SDS011;25517;52.422;10.782;2023-01-15T07:19:53;6.93;;;1.30;;
39846;SDS011;25517;52.422;10.782;2023-01-15T07:22:18;3.55;;;1.20;;
39846;SDS011;25517;52.422;10.782;2023-01-15T07:24:43;4.07;;;1.38;;
39846;SDS011;25517;52.422;10.782;2023-01-15T07:27:09;6.93;;;1.25;;
39846;SDS011;25517;52.422;10.782;2023-01-15T07:29:35;4.18;;;1.30;;
39846;SDS011;25517;52.422;10.782;2023-01-15T07:32:00;6.45;;;1.15;;
39846;SDS011;25517;52.422;10.782;2023-01-15T07:34:26;4.75;;;1.27;;
39846;SDS011;25517;52.422;10.782;2023-01-15T07:36:51;8.05;;;2.25;;
39846;SDS011;25517;52.422;10.782;2023-01-15T07:39:17;5.70;;;1.38;;
39846;SDS011;25517;52.422;10.782;2023-01-15T07:41:42;5.43;;;1.33;;
39846;SDS011;25517;52.422;10.782;2023-01-15T07:44:26;5.57;;;1.55;;
39846;SDS011;25517;52.422;10.782;2023-01-15T07:50:02;5.60;;;1.90;;
39846;SDS011;25517;52.422;10.782;2023-01-15T07:52:29;4.32;;;1.23;;
39846;SDS011;25517;52.422;10.782;2023-01-15T07:54:54;6.50;;;1.45;;
39846;SDS011;25517;52.422;10.782;2023-01-15T07:57:20;3.33;;;1.20;;
39846;SDS011;25517;52.422;10.782;2023-01-15T07:59:47;4.32;;;1.23;;
39846;SDS011;25517;52.422;10.782;2023-01-15T08:02:13;5.55;;;1.30;;
39846;SDS011;25517;52.422;10.782;2023-01-15T08:04:39;6.43;;;1.48;;
39846;SDS011;25517;52.422;10.782;2023-01-15T08:07:04;3.60;;;1.23;;
39846;SDS011;25517;52.422;10.782;2023-01-15T08:09:30;5.40;;;2.13;;
39846;SDS011;25517;52.422;10.782;2023-01-15T08:12:00;6.40;;;1.50;;
39846;SDS011;25517;52.422;10.782;2023-01-15T08:14:45;3.75;;;1.10;;
39846;SDS011;25517;52.422;10.782;2023-01-15T08:17:32;4.20;;;1.50;;
39846;SDS011;25517;52.422;10.782;2023-01-15T08:19:58;8.88;;;1.98;;
39846;SDS011;25517;52.422;10.782;2023-01-15T08:22:24;8.20;;;2.13;;
39846;SDS011;25517;52.422;10.782;2023-01-15T08:24:50;5.28;;;1.85;;
39846;SDS011;25517;52.422;10.782;2023-01-15T08:27:15;7.40;;;1.63;;
39846;SDS011;25517;52.422;10.782;2023-01-15T08:29:41;6.05;;;1.52;;
39846;SDS011;25517;52.422;10.782;2023-01-15T08:32:06;7.88;;;1.50;;
39846;SDS011;25517;52.422;10.782;2023-01-15T08:34:32;8.50;;;2.08;;
39846;SDS011;25517;52.422;10.782;2023-01-15T08:36:58;8.68;;;1.98;;
39846;SDS011;25517;52.422;10.782;2023-01-15T08:39:24;7.13;;;2.13;;
39846;SDS011;25517;52.422;10.782;2023-01-15T08:41:51;3.97;;;1.25;;
39846;SDS011;25517;52.422;10.782;2023-01-15T08:44:17;5.32;;;2.03;;
39846;SDS011;25517;52.422;10.782;2023-01-15T08:46:42;7.93;;;1.55;;
39846;SDS011;25517;52.422;10.782;2023-01-15T08:49:10;5.88;;;1.45;;
39846;SDS011;25517;52.422;10.782;2023-01-15T08:51:36;7.78;;;1.67;;
39846;SDS011;25517;52.422;10.782;2023-01-15T08:54:02;6.25;;;1.50;;
39846;SDS011;25517;52.422;10.782;2023-01-15T08:56:27;4.32;;;1.77;;
39846;SDS011;25517;52.422;10.782;2023-01-15T08:58:53;12.20;;;1.60;;
39846;SDS011;25517;52.422;10.782;2023-01-15T09:01:18;5.78;;;1.35;;
39846;SDS011;25517;52.422;10.782;2023-01-15T09:03:44;6.50;;;1.92;;
39846;SDS011;25517;52.422;10.782;2023-01-15T09:06:10;4.57;;;1.58;;
39846;SDS011;25517;52.422;10.782;2023-01-15T09:08:37;4.35;;;1.42;;
39846;SDS011;25517;52.422;10.782;2023-01-15T09:11:03;6.07;;;1.08;;
39846;SDS011;25517;52.422;10.782;2023-01-15T09:13:31;4.00;;;1.15;;
39846;SDS011;25517;52.422;10.782;2023-01-15T09:16:00;6.30;;;1.25;;
39846;SDS011;25517;52.422;10.782;2023-01-15T09:18:27;2.50;;;0.98;;
39846;SDS011;25517;52.422;10.782;2023-01-15T09:20:52;5.72;;;1.55;;
39846;SDS011;25517;52.422;10.782;2023-01-15T09:23:18;8.70;;;1.98;;
39846;SDS011;25517;52.422;10.782;2023-01-15T09:25:51;4.10;;;1.40;;
39846;SDS011;25517;52.422;10.782;2023-01-15T09:28:20;3.83;;;1.42;;
39846;SDS011;25517;52.422;10.782;2023-01-15T09:30:46;6.57;;;1.85;;
39846;SDS011;25517;52.422;10.782;2023-01-15T09:33:11;5.82;;;1.40;;
39846;SDS011;25517;52.422;10.782;2023-01-15T09:35:37;3.45;;;1.58;;
39846;SDS011;25517;52.422;10.782;2023-01-15T09:38:03;5.50;;;1.58;;
39846;SDS011;25517;52.422;10.782;2023-01-15T09:43:23;4.15;;;1.63;;
39846;SDS011;25517;52.422;10.782;2023-01-15T09:46:02;3.35;;;1.40;;
39846;SDS011;25517;52.422;10.782;2023-01-15T09:56:55;6.40;;;1.50;;
39846;SDS011;25517;52.422;10.782;2023-01-15T09:59:24;3.75;;;1.40;;
39846;SDS011;25517;52.422;10.782;2023-01-15T10:02:16;5.22;;;1.58;;
39846;SDS011;25517;52.422;10.782;2023-01-15T10:05:10;2.70;;;1.20;;
39846;SDS011;25517;52.422;10.782;2023-01-15T10:10:55;6.63;;;1.63;;
39846;SDS011;25517;52.422;10.782;2023-01-15T10:13:36;6.35;;;1.45;;
39846;SDS011;25517;52.422;10.782;2023-01-15T10:16:10;6.78;;;1.90;;
39846;SDS011;25517;52.422;10.782;2023-01-15T10:18:41;6.80;;;1.40;;
39846;SDS011;25517;52.422;10.782;2023-01-15T10:23:58;5.05;;;1.08;;
39846;SDS011;25517;52.422;10.782;2023-01-15T10:26:39;4.78;;;1.80;;
39846;SDS011;25517;52.422;10.782;2023-01-15T10:29:25;9.20;;;1.50;;
39846;SDS011;25517;52.422;10.782;2023-01-15T10:35:04;6.10;;;1.33;;
39846;SDS011;25517;52.422;10.782;2023-01-15T10:37:55;5.47;;;1.38;;
39846;SDS011;25517;52.422;10.782;2023-01-15T10:43:18;1.83;;;0.90;;
39846;SDS011;25517;52.422;10.782;2023-01-15T10:46:00;6.65;;;2.20;;
39846;SDS011;25517;52.422;10.782;2023-01-15T10:48:41;7.10;;;1.42;;
39846;SDS011;25517;52.422;10.782;2023-01-15T10:51:27;3.67;;;1.10;;
39846;SDS011;25517;52.422;10.782;2023-01-15T11:02:22;1.98;;;0.70;;
39846;SDS011;25517;52.422;10.782;2023-01-15T11:04:51;2.10;;;1.10;;
39846;SDS011;25517;52.422;10.782;2023-01-15T11:07:18;4.47;;;0.90;;
39846;SDS011;25517;52.422;10.782;2023-01-15T11:09:50;3.17;;;1.35;;
39846;SDS011;25517;52.422;10.782;2023-01-15T11:14:51;2.42;;;0.90;;
39846;SDS011;25517;52.422;10.782;2023-01-15T11:17:37;1.25;;;0.88;;
39846;SDS011;25517;52.422;10.782;2023-01-15T11:23:07;2.03;;;0.88;;
39846;SDS011;25517;52.422;10.782;2023-01-15T11:25:34;2.05;;;0.90;;
39846;SDS011;25517;52.422;10.782;2023-01-15T11:28:01;4.75;;;1.10;;
39846;SDS011;25517;52.422;10.782;2023-01-15T11:30:31;5.93;;;1.48;;
39846;SDS011;25517;52.422;10.782;2023-01-15T11:33:02;2.92;;;1.15;;
39846;SDS011;25517;52.422;10.782;2023-01-15T11:35:28;8.02;;;1.58;;
39846;SDS011;25517;52.422;10.782;2023-01-15T11:38:05;4.75;;;1.33;;
39846;SDS011;25517;52.422;10.782;2023-01-15T11:40:36;4.50;;;1.20;;
39846;SDS011;25517;52.422;10.782;2023-01-15T11:43:02;3.97;;;1.30;;
39846;SDS011;25517;52.422;10.782;2023-01-15T11:45:50;2.35;;;1.35;;
39846;SDS011;25517;52.422;10.782;2023-01-15T11:48:42;4.50;;;1.80;;
39846;SDS011;25517;52.422;10.782;2023-01-15T11:51:28;2.65;;;1.15;;
39846;SDS011;25517;52.422;10.782;2023-01-15T11:54:02;4.22;;;1.55;;
39846;SDS011;25517;52.422;10.782;2023-01-15T11:56:32;1.65;;;1.05;;
39846;SDS011;25517;52.422;10.782;2023-01-15T11:59:03;6.43;;;1.20;;
39846;SDS011;25517;52.422;10.782;2023-01-15T12:01:36;3.83;;;1.10;;
39846;SDS011;25517;52.422;10.782;2023-01-15T12:07:13;1.52;;;1.00;;
39846;SDS011;25517;52.422;10.782;2023-01-15T12:09:46;3.70;;;1.00;;
39846;SDS011;25517;52.422;10.782;2023-01-15T12:20:44;6.82;;;1.38;;
39846;SDS011;25517;52.422;10.782;2023-01-15T12:29:36;4.47;;;1.40;;
39846;SDS011;25517;52.422;10.782;2023-01-15T12:32:12;6.20;;;1.10;;
39846;SDS011;25517;52.422;10.782;2023-01-15T12:34:48;2.47;;;1.35;;
39846;SDS011;25517;52.422;10.782;2023-01-15T12:37:19;3.55;;;1.30;;
39846;SDS011;25517;52.422;10.782;2023-01-15T12:39:51;5.53;;;1.20;;
39846;SDS011;25517;52.422;10.782;2023-01-15T12:42:37;6.60;;;1.10;;
39846;SDS011;25517;52.422;10.782;2023-01-15T12:45:23;3.53;;;1.10;;
39846;SDS011;25517;52.422;10.782;2023-01-15T12:47:56;3.10;;;1.48;;
39846;SDS011;25517;52.422;10.782;2023-01-15T12:50:46;6.20;;;1.33;;
39846;SDS011;25517;52.422;10.782;2023-01-15T12:53:36;7.18;;;1.67;;
39846;SDS011;25517;52.422;10.782;2023-01-15T12:59:05;7.07;;;1.92;;
39846;SDS011;25517;52.422;10.782;2023-01-15T13:02:17;4.07;;;1.20;;
39846;SDS011;25517;52.422;10.782;2023-01-15T13:04:49;2.08;;;0.93;;
39846;SDS011;25517;52.422;10.782;2023-01-15T13:07:38;5.85;;;1.17;;
39846;SDS011;25517;52.422;10.782;2023-01-15T13:10:22;3.28;;;1.05;;
39846;SDS011;25517;52.422;10.782;2023-01-15T13:12:52;3.63;;;0.90;;
39846;SDS011;25517;52.422;10.782;2023-01-15T13:15:19;7.03;;;1.48;;
39846;SDS011;25517;52.422;10.782;2023-01-15T13:18:14;2.83;;;1.10;;
39846;SDS011;25517;52.422;10.782;2023-01-15T13:20:52;4.97;;;1.20;;
39846;SDS011;25517;52.422;10.782;2023-01-15T13:23:26;4.85;;;1.05;;
39846;SDS011;25517;52.422;10.782;2023-01-15T13:26:40;3.50;;;1.38;;
39846;SDS011;25517;52.422;10.782;2023-01-15T13:32:31;4.22;;;1.45;;
39846;SDS011;25517;52.422;10.782;2023-01-15T13:37:48;6.28;;;1.27;;
39846;SDS011;25517;52.422;10.782;2023-01-15T13:43:00;5.72;;;1.33;;
39846;SDS011;25517;52.422;10.782;2023-01-15T13:45:34;4.10;;;1.13;;
39846;SDS011;25517;52.422;10.782;2023-01-15T13:48:47;3.78;;;1.20;;
39846;SDS011;25517;52.422;10.782;2023-01-15T13:51:00;2.35;;;0.82;;
39846;SDS011;25517;52.422;10.782;2023-01-15T13:53:33;1.83;;;0.95;;
39846;SDS011;25517;52.422;10.782;2023-01-15T13:56:04;3.85;;;1.40;;
39846;SDS011;25517;52.422;10.782;2023-01-15T13:58:36;6.03;;;1.58;;
39846;SDS011;25517;52.422;10.782;2023-01-15T14:01:05;3.75;;;1.05;;
39846;SDS011;25517;52.422;10.782;2023-01-15T14:04:04;4.40;;;0.98;;
39846;SDS011;25517;52.422;10.782;2023-01-15T14:06:47;3.72;;;1.13;;
39846;SDS011;25517;52.422;10.782;2023-01-15T14:09:25;3.63;;;1.20;;
39846;SDS011;25517;52.422;10.782;2023-01-15T14:14:48;5.45;;;1.17;;
39846;SDS011;25517;52.422;10.782;2023-01-15T14:26:26;5.40;;;1.25;;
39846;SDS011;25517;52.422;10.782;2023-01-15T14:31:40;7.13;;;1.33;;
39846;SDS011;25517;52.422;10.782;2023-01-15T14:36:59;7.00;;;1.40;;
39846;SDS011;25517;52.422;10.782;2023-01-15T14:42:05;3.08;;;1.55;;
39846;SDS011;25517;52.422;10.782;2023-01-15T14:45:29;6.43;;;1.63;;
39846;SDS011;25517;52.422;10.782;2023-01-15T14:48:01;9.35;;;1.20;;
39846;SDS011;25517;52.422;10.782;2023-01-15T14:55:31;7.65;;;1.60;;
39846;SDS011;25517;52.422;10.782;2023-01-15T14:58:02;2.88;;;1.23;;
39846;SDS011;25517;52.422;10.782;2023-01-15T15:00:34;4.70;;;1.38;;
39846;SDS011;25517;52.422;10.782;2023-01-15T15:05:42;6.55;;;1.50;;
39846;SDS011;25517;52.422;10.782;2023-01-15T15:08:12;5.68;;;1.52;;
39846;SDS011;25517;52.422;10.782;2023-01-15T15:10:40;7.10;;;1.92;;
39846;SDS011;25517;52.422;10.782;2023-01-15T15:19:10;3.90;;;1.20;;
39846;SDS011;25517;52.422;10.782;2023-01-15T15:21:39;4.90;;;1.50;;
39846;SDS011;25517;52.422;10.782;2023-01-15T15:24:17;6.88;;;1.90;;
39846;SDS011;25517;52.422;10.782;2023-01-15T15:26:49;7.38;;;1.38;;
39846;SDS011;25517;52.422;10.782;2023-01-15T15:29:16;4.60;;;1.35;;
39846;SDS011;25517;52.422;10.782;2023-01-15T15:31:44;4.97;;;1.95;;
39846;SDS011;25517;52.422;10.782;2023-01-15T15:34:16;5.07;;;1.63;;
39846;SDS011;25517;52.422;10.782;2023-01-15T15:36:56;3.72;;;1.33;;
39846;SDS011;25517;52.422;10.782;2023-01-15T15:39:26;4.32;;;1.17;;
39846;SDS011;25517;52.422;10.782;2023-01-15T15:42:14;8.45;;;2.15;;
39846;SDS011;25517;52.422;10.782;2023-01-15T15:45:21;6.97;;;1.90;;
39846;SDS011;25517;52.422;10.782;2023-01-15T15:48:18;6.57;;;1.70;;
39846;SDS011;25517;52.422;10.782;2023-01-15T15:51:18;3.92;;;1.30;;
39846;SDS011;25517;52.422;10.782;2023-01-15T15:53:48;8.05;;;1.63;;
39846;SDS011;25517;52.422;10.782;2023-01-15T15:56:14;4.45;;;1.33;;
39846;SDS011;25517;52.422;10.782;2023-01-15T15:58:39;7.00;;;1.23;;
39846;SDS011;25517;52.422;10.782;2023-01-15T16:01:09;9.98;;;2.03;;
39846;SDS011;25517;52.422;10.782;2023-01-15T16:03:43;4.60;;;1.20;;
39846;SDS011;25517;52.422;10.782;2023-01-15T16:06:16;5.80;;;1.10;;
39846;SDS011;25517;52.422;10.782;2023-01-15T16:08:50;5.63;;;1.23;;
39846;SDS011;25517;52.422;10.782;2023-01-15T16:11:17;6.50;;;1.10;;
39846;SDS011;25517;52.422;10.782;2023-01-15T16:13:44;8.90;;;1.67;;
39846;SDS011;25517;52.422;10.782;2023-01-15T16:16:13;3.25;;;1.40;;
39846;SDS011;25517;52.422;10.782;2023-01-15T16:18:53;5.72;;;1.58;;
39846;SDS011;25517;52.422;10.782;2023-01-15T16:21:31;3.97;;;1.30;;
39846;SDS011;25517;52.422;10.782;2023-01-15T16:24:07;9.05;;;2.15;;
39846;SDS011;25517;52.422;10.782;2023-01-15T16:26:46;12.25;;;1.40;;
39846;SDS011;25517;52.422;10.782;2023-01-15T16:29:18;6.10;;;1.40;;
39846;SDS011;25517;52.422;10.782;2023-01-15T16:31:45;9.90;;;1.70;;
39846;SDS011;25517;52.422;10.782;2023-01-15T16:34:16;7.15;;;1.27;;
39846;SDS011;25517;52.422;10.782;2023-01-15T16:36:43;4.50;;;1.38;;
39846;SDS011;25517;52.422;10.782;2023-01-15T16:39:16;5.20;;;1.38;;
39846;SDS011;25517;52.422;10.782;2023-01-15T16:41:48;5.22;;;1.27;;
39846;SDS011;25517;52.422;10.782;2023-01-15T16:47:07;5.00;;;1.30;;
39846;SDS011;25517;52.422;10.782;2023-01-15T16:49:50;4.78;;;1.27;;
39846;SDS011;25517;52.422;10.782;2023-01-15T16:58:13;2.75;;;1.10;;
39846;SDS011;25517;52.422;10.782;2023-01-15T17:00:42;5.47;;;1.77;;
39846;SDS011;25517;52.422;10.782;2023-01-15T17:03:13;8.00;;;1.20;;
39846;SDS011;25517;52.422;10.782;2023-01-15T17:05:45;7.03;;;1.63;;
39846;SDS011;25517;52.422;10.782;2023-01-15T17:11:02;4.75;;;1.13;;
39846;SDS011;25517;52.422;10.782;2023-01-15T17:13:31;5.57;;;1.60;;